EW9536 Santa Margarida De Montbui ES current weather conditions

sailwx.info

Wind from 293 at 1 knots gusting 3

Air temperature 17.8° C
Dewpoint 13.5° C

Last reported at 2020-Jul-14 03:00 UTC.
Time now 2020-Jul-14 03:19 UTC

Location: N 41°35' E 001°36'.
View on Google Maps.

See reports from other nearby stations

  
Tides and Currents Weather Stations Pressure Air Temp Water Temp Dewpoint Dewpoint Depression Visibility Wind Speed Wind Dir Waves Ship Positions
date/time (UTC)wind fromknots sea level pressurealtimeterstation pressurevisibilityair tempwater tempwave heightnotes
2020-Jul-14 03:00 293 1 gusting 3 17.8
2020-Jul-14 02:50 270 2 gusting 5 17.8
2020-Jul-14 02:40 18.3
2020-Jul-14 02:30 248 0 gusting 1 18.3
2020-Jul-14 02:20 18.3
2020-Jul-14 02:10 18.3
2020-Jul-14 02:00 248 0 gusting 2 18.9
2020-Jul-14 01:50 248 0 gusting 3 18.9
2020-Jul-14 01:40 18.9
2020-Jul-14 01:30 248 0 gusting 3 18.9
2020-Jul-14 01:20 18.9
2020-Jul-14 01:10 270 1 gusting 3 18.9
2020-Jul-14 01:00 270 0 gusting 1 18.9
2020-Jul-14 00:50 270 0 gusting 2 18.9
2020-Jul-14 00:40 270 0 gusting 3 18.9
2020-Jul-14 00:30 19.4
2020-Jul-14 00:20 270 0 gusting 2 18.9
2020-Jul-14 00:10 270 1 gusting 3 18.9
2020-Jul-14 00:00 270 0 gusting 2 18.9
2020-Jul-13 23:52 19.4
2020-Jul-13 23:40 19.4
2020-Jul-13 23:30 19.4
2020-Jul-13 23:20 19.4
2020-Jul-13 23:10 19.4
2020-Jul-13 23:00 19.4
2020-Jul-13 22:50 19.4
2020-Jul-13 22:40 19.4
2020-Jul-13 22:30 19.4
2020-Jul-13 22:20 270 0 gusting 2 19.4
2020-Jul-13 22:10 19.4
2020-Jul-13 21:52 270 3 gusting 5 19.4
2020-Jul-13 21:40 20.0
2020-Jul-13 21:30 20.0
2020-Jul-13 21:20 225 1 gusting 3 20.0
2020-Jul-13 21:10 20.0
2020-Jul-13 21:00 20.0
2020-Jul-13 20:50 20.6
2020-Jul-13 20:40 20.6
2020-Jul-13 20:30 20.6
2020-Jul-13 20:20 20.6
2020-Jul-13 20:10 20.6
2020-Jul-13 20:00 20.6
2020-Jul-13 19:50 21.1
2020-Jul-13 19:40 21.1
2020-Jul-13 19:30 270 0 gusting 2 21.1
2020-Jul-13 19:20 248 0 gusting 2 21.1
2020-Jul-13 19:10 225 1 gusting 3 21.1
2020-Jul-13 19:00 21.1
2020-Jul-13 18:50 21.1
2020-Jul-13 18:40 068 0 gusting 3 21.1
2020-Jul-13 18:30 023 0 gusting 2 21.7
2020-Jul-13 18:20 023 0 gusting 2 21.7
2020-Jul-13 18:10 21.7
2020-Jul-13 18:00 045 1 gusting 4 21.7
2020-Jul-13 17:50 045 4 gusting 8 21.7
2020-Jul-13 17:40 023 2 gusting 6 21.7
2020-Jul-13 17:30 21.7
2020-Jul-13 17:20 21.1
2020-Jul-13 17:10 045 2 gusting 5 20.6
2020-Jul-13 17:00 090 3 gusting 6 20.6
2020-Jul-13 16:50 068 3 gusting 7 20.0
2020-Jul-13 16:40 090 2 gusting 6 20.0
2020-Jul-13 16:30 20.0
2020-Jul-13 16:20 158 10 gusting 17 20.0
2020-Jul-13 16:10 248 10 gusting 20 20.6
2020-Jul-13 16:00 338 4 gusting 8 22.2
2020-Jul-13 15:50 023 9 gusting 13 23.9
2020-Jul-13 15:40 045 7 gusting 12 24.4
2020-Jul-13 15:30 045 7 gusting 16 25.0
2020-Jul-13 15:20 045 8 gusting 14 25.0
2020-Jul-13 15:10 068 7 gusting 15 26.7
2020-Jul-13 15:00 113 8 gusting 13 27.2
2020-Jul-13 14:50 135 7 gusting 13 27.8
2020-Jul-13 14:40 135 8 gusting 13 27.8
2020-Jul-13 14:30 158 6 gusting 13 27.8
2020-Jul-13 14:20 135 9 gusting 18 27.8
2020-Jul-13 14:10 135 6 gusting 11 27.2
2020-Jul-13 14:00 135 5 gusting 10 25.6
2020-Jul-13 13:50 135 5 gusting 7 25.0
2020-Jul-13 13:40 158 7 gusting 13 25.0
2020-Jul-13 13:30 158 6 gusting 9 25.6
2020-Jul-13 13:20 203 2 gusting 6 27.8
2020-Jul-13 13:10 180 6 gusting 13 28.3
2020-Jul-13 13:00 180 7 gusting 14 29.4
2020-Jul-13 12:50 158 7 gusting 16 30.6
2020-Jul-13 12:40 180 6 gusting 15 30.6
2020-Jul-13 12:30 180 8 gusting 18 30.0
2020-Jul-13 12:20 158 8 gusting 13 30.0
2020-Jul-13 12:10 135 5 gusting 9 30.6
2020-Jul-13 12:00 113 4 gusting 9 31.1
2020-Jul-13 11:50 135 6 gusting 11 31.1
2020-Jul-13 11:40 113 4 gusting 7 30.6
2020-Jul-13 11:30 068 4 gusting 9 30.6
2020-Jul-13 11:20 113 3 gusting 6 30.6
2020-Jul-13 11:10 158 5 gusting 11 30.6
2020-Jul-13 11:00 045 3 gusting 8 30.0
2020-Jul-13 10:50 045 4 gusting 9 30.0
2020-Jul-13 10:40 045 6 gusting 9 30.0
2020-Jul-13 10:30 068 5 gusting 9 29.4
2020-Jul-13 10:20 023 4 gusting 7 28.9
2020-Jul-13 10:10 090 3 gusting 8 28.3
2020-Jul-13 10:00 068 3 gusting 8 28.3
2020-Jul-13 09:50 113 4 gusting 8 28.3
2020-Jul-13 09:40 090 5 gusting 9 28.3
2020-Jul-13 09:30 090 4 gusting 8 27.8
2020-Jul-13 09:20 158 5 gusting 10 27.8
2020-Jul-13 09:10 113 3 gusting 8 27.2
2020-Jul-13 09:00 135 5 gusting 10 26.7
2020-Jul-13 08:50 113 6 gusting 13 26.7
2020-Jul-13 08:40 113 6 gusting 10 26.7
2020-Jul-13 08:30 113 4 gusting 7 26.7
2020-Jul-13 08:20 113 4 gusting 7 27.2
2020-Jul-13 08:10 068 3 gusting 7 26.7
2020-Jul-13 08:00 113 0 gusting 4 26.7
2020-Jul-13 07:50 045 1 gusting 3 26.1
2020-Jul-13 07:40 068 1 gusting 4 25.6
2020-Jul-13 07:30 023 0 gusting 1 25.0
2020-Jul-13 07:20 25.0
2020-Jul-13 07:10 24.4
2020-Jul-13 07:00 23.9
2020-Jul-13 06:50 23.3
2020-Jul-13 06:40 22.8
2020-Jul-13 06:30 22.8
2020-Jul-13 06:20 22.2
2020-Jul-13 06:10 21.1
2020-Jul-13 06:00 20.6
2020-Jul-13 05:50 20.0
2020-Jul-13 05:40 270 1 gusting 3 20.0
2020-Jul-13 05:30 293 0 gusting 2 20.0
2020-Jul-13 05:20 20.0
2020-Jul-13 05:10 20.0
2020-Jul-13 05:00 20.0
2020-Jul-13 04:50 20.0
2020-Jul-13 04:40 20.0
2020-Jul-13 04:30 293 0 gusting 2 20.0
2020-Jul-13 04:20 293 2 gusting 7 20.0
2020-Jul-13 04:10 270 2 gusting 5 20.0
2020-Jul-13 04:00 20.6
2020-Jul-13 03:50 20.6
2020-Jul-13 03:40 20.6
2020-Jul-13 03:30 20.6
2020-Jul-13 03:20 20.0
2020-Jul-13 03:10 20.0
2020-Jul-13 03:00 20.0
2020-Jul-13 02:50 20.0
2020-Jul-13 02:40 20.0
2020-Jul-13 02:30 270 1 gusting 3 20.0
2020-Jul-13 02:20 293 1 gusting 3 20.0
2020-Jul-13 02:10 293 2 gusting 5 20.0
2020-Jul-13 02:00 293 0 gusting 2 20.0
2020-Jul-13 01:50 270 0 gusting 3 20.0
2020-Jul-13 01:40 20.0
2020-Jul-13 01:30 293 2 gusting 5 20.6
2020-Jul-13 01:20 248 0 gusting 2 20.6
2020-Jul-13 01:10 20.6
2020-Jul-13 01:00 20.6
2020-Jul-13 00:50 20.6
2020-Jul-13 00:40 20.6
2020-Jul-13 00:30 248 0 gusting 2 21.1
2020-Jul-13 00:20 21.1
2020-Jul-13 00:10 21.1
2020-Jul-13 00:00 21.1
2020-Jul-12 23:50 21.1
2020-Jul-12 23:40 293 0 gusting 3 21.1
2020-Jul-12 23:30 270 0 gusting 2 21.1
2020-Jul-12 23:20 270 2 gusting 5 21.1
2020-Jul-12 23:10 315 1 gusting 3 21.1
2020-Jul-12 23:00 21.7
2020-Jul-12 22:50 21.7
2020-Jul-12 22:40 21.7
2020-Jul-12 22:30 21.7
2020-Jul-12 22:20 21.7
2020-Jul-12 22:10 21.7
2020-Jul-12 22:00 21.7
2020-Jul-12 21:50 293 2 gusting 5 21.7
2020-Jul-12 21:40 338 1 gusting 3 21.7
2020-Jul-12 21:30 270 0 gusting 2 21.7
2020-Jul-12 21:20 180 0 gusting 4 21.7
2020-Jul-12 21:10 180 1 gusting 4 21.7
2020-Jul-12 21:00 225 0 gusting 3 21.7
2020-Jul-12 20:50 22.2
2020-Jul-12 20:40 225 2 gusting 4 22.2
2020-Jul-12 20:30 090 0 gusting 4 22.8
2020-Jul-12 20:20 090 1 gusting 2 22.2
2020-Jul-12 20:10 023 2 gusting 4 22.2
2020-Jul-12 20:00 068 0 gusting 2 22.2
2020-Jul-12 19:50 068 1 gusting 4 22.8
2020-Jul-12 19:40 090 1 gusting 5 22.8
2020-Jul-12 19:30 090 2 gusting 6 22.8
2020-Jul-12 19:20 113 4 gusting 7 22.8
2020-Jul-12 19:10 158 5 gusting 7 22.8
2020-Jul-12 19:00 113 3 gusting 8 22.8
2020-Jul-12 18:50 090 4 gusting 8 22.8
2020-Jul-12 18:40 090 5 gusting 10 23.3
2020-Jul-12 18:30 135 6 gusting 10 23.3
2020-Jul-12 18:20 068 2 gusting 4 23.3
2020-Jul-12 18:10 068 3 gusting 6 23.3
2020-Jul-12 18:00 090 2 gusting 6 23.3
2020-Jul-12 17:50 113 2 gusting 6 23.3
2020-Jul-12 17:40 23.3
2020-Jul-12 17:30 023 0 gusting 5 23.3
2020-Jul-12 17:20 113 0 gusting 3 23.3
2020-Jul-12 17:10 135 1 gusting 4 23.9
2020-Jul-12 17:00 158 6 gusting 16 24.4
2020-Jul-12 16:50 158 6 gusting 11 25.6
2020-Jul-12 16:40 180 7 gusting 14 25.6
2020-Jul-12 16:30 180 7 gusting 19 26.1
2020-Jul-12 16:20 180 7 gusting 16 26.7
2020-Jul-12 16:10 180 11 gusting 19 27.8
2020-Jul-12 16:00 158 12 gusting 19 28.3
2020-Jul-12 15:50 158 10 gusting 19 28.9
2020-Jul-12 15:40 158 13 gusting 22 29.4
2020-Jul-12 15:30 135 11 gusting 22 30.6
2020-Jul-12 15:20 158 10 gusting 18 30.6
2020-Jul-12 15:10 135 8 gusting 15 31.1
2020-Jul-12 15:00 135 10 gusting 15 30.6
2020-Jul-12 14:50 135 8 gusting 13 31.1
2020-Jul-12 14:40 113 7 gusting 13 31.7
2020-Jul-12 14:30 135 7 gusting 14 31.7
2020-Jul-12 14:20 090 4 gusting 9 31.1
2020-Jul-12 14:10 090 6 gusting 13 30.6
2020-Jul-12 14:00 135 7 gusting 15 30.6
2020-Jul-12 13:50 113 7 gusting 12 31.7
2020-Jul-12 13:40 135 8 gusting 13 31.7
2020-Jul-12 13:30 090 6 gusting 12 31.7
2020-Jul-12 13:20 113 6 gusting 11 31.7
2020-Jul-12 13:10 045 5 gusting 9 31.7
2020-Jul-12 13:00 135 6 gusting 13 31.7
2020-Jul-12 12:50 090 1 gusting 6 31.7
2020-Jul-12 12:40 31.7
2020-Jul-12 12:30 270 2 gusting 6 31.1
2020-Jul-12 12:20 158 2 gusting 6 31.1
2020-Jul-12 12:10 203 1 gusting 6 30.6
2020-Jul-12 12:00 293 3 gusting 8 30.6
2020-Jul-12 11:50 180 2 gusting 5 30.0
2020-Jul-12 11:40 225 3 gusting 7 30.0
2020-Jul-12 11:30 203 3 gusting 7 30.0
2020-Jul-12 11:20 158 2 gusting 8 30.0
2020-Jul-12 11:10 158 3 gusting 8 30.0
2020-Jul-12 11:00 225 4 gusting 7 29.4
2020-Jul-12 10:50 270 3 gusting 6 29.4
2020-Jul-12 10:40 248 4 gusting 8 29.4
2020-Jul-12 10:30 158 4 gusting 9 28.9
2020-Jul-12 10:20 158 6 gusting 13 28.3
2020-Jul-12 10:10 180 2 gusting 6 27.8
2020-Jul-12 10:00 180 0 gusting 4 28.3
2020-Jul-12 09:50 045 3 gusting 6 28.3
2020-Jul-12 09:40 023 2 gusting 6 27.8
2020-Jul-12 09:30 045 1 gusting 4 27.8
2020-Jul-12 09:20 113 1 gusting 5 27.8
2020-Jul-12 09:10 068 3 gusting 6 27.8
2020-Jul-12 09:00 068 3 gusting 7 27.8
2020-Jul-12 08:50 113 1 gusting 6 27.8
2020-Jul-12 08:40 113 2 gusting 5 27.2
2020-Jul-12 08:30 068 0 gusting 3 26.7
2020-Jul-12 08:20 090 0 gusting 3 26.1
2020-Jul-12 08:10 045 0 gusting 2 25.6
2020-Jul-12 08:00 068 0 gusting 2 25.0
2020-Jul-12 07:50 045 0 gusting 2 24.4
2020-Jul-12 07:40 090 0 gusting 2 23.9
2020-Jul-12 07:30 22.8
2020-Jul-12 07:20 045 0 gusting 2 22.2
2020-Jul-12 07:10 045 0 gusting 3 21.7
2020-Jul-12 07:00 21.1
2020-Jul-12 06:50 20.6
2020-Jul-12 06:40 270 0 gusting 2 20.0
2020-Jul-12 06:30 270 0 gusting 2 19.4
2020-Jul-12 06:20 270 1 gusting 3 18.9
2020-Jul-12 06:10 18.3
2020-Jul-12 06:00 18.3
2020-Jul-12 05:50 18.3
2020-Jul-12 05:40 17.8
2020-Jul-12 05:30 17.8
2020-Jul-12 05:20 17.8
2020-Jul-12 05:10 17.2
2020-Jul-12 05:00 17.2
2020-Jul-12 04:50 17.2
2020-Jul-12 04:40 17.2
2020-Jul-12 04:30 270 0 gusting 2 17.2
2020-Jul-12 04:20 17.2
2020-Jul-12 04:10 270 1 gusting 3 17.2
2020-Jul-12 04:00 270 0 gusting 2 17.2
2020-Jul-12 03:50 270 0 gusting 3 17.2
2020-Jul-12 03:40 270 1 gusting 3 17.2
2020-Jul-12 03:30 270 1 gusting 3 17.2
2020-Jul-12 03:20 270 0 gusting 1 17.2
2020-Jul-12 03:10 270 0 gusting 1 17.2
2020-Jul-12 03:00 270 1 gusting 3 17.2